Time;durP1;ratioP1;P1;durP2;ratioP2;P2;SDS_P1;SDS_P2;PMS_P1;PMS_P2;Temp;Humidity;BMP_temperature;BMP_pressure;BME280_temperature;BME280_humidity;BME280_pressure;Samples;Min_cycle;Max_cycle;Signal;HPM_P1;HPM_P2
2021/05/04 00:00:44;;;;;;;0.73;0.73;;;13.10;89.60;;;;;;5066203;28;20032;-56
2021/05/04 00:03:10;;;;;;;0.70;0.70;;;13.10;89.90;;;;;;5068767;28;20055;-56
2021/05/04 00:05:35;;;;;;;0.85;0.85;;;13.00;90.10;;;;;;5069440;28;20521;-57
2021/05/04 00:08:01;;;;;;;0.60;0.60;;;13.10;90.10;;;;;;5069132;28;20036;-56
2021/05/04 00:10:27;;;;;;;0.55;0.55;;;13.20;90.00;;;;;;5069390;28;20414;-56
2021/05/04 00:12:53;;;;;;;0.70;0.70;;;13.00;90.10;;;;;;5069693;28;20021;-56
2021/05/04 00:15:19;;;;;;;1.45;0.63;;;13.10;90.20;;;;;;5069537;28;20032;-56
2021/05/04 00:17:45;;;;;;;0.73;0.70;;;13.10;90.30;;;;;;5069890;28;20024;-57
2021/05/04 00:20:12;;;;;;;1.50;0.80;;;13.00;90.40;;;;;;5069471;28;20107;-56
2021/05/04 00:22:37;;;;;;;0.70;0.70;;;13.10;90.60;;;;;;5069064;28;20036;-56
2021/05/04 00:25:04;;;;;;;0.65;0.60;;;13.10;90.40;;;;;;5069414;28;20033;-56
2021/05/04 00:27:30;;;;;;;0.90;0.60;;;13.10;90.40;;;;;;5068485;28;20039;-56
2021/05/04 00:29:55;;;;;;;0.73;0.73;;;13.00;90.30;;;;;;5069427;28;20028;-56
2021/05/04 00:32:21;;;;;;;0.68;0.68;;;13.00;90.60;;;;;;5047990;28;21017;-56
2021/05/04 00:34:48;;;;;;;1.05;0.88;;;12.70;90.70;;;;;;5049588;28;20021;-56
2021/05/04 00:37:14;;;;;;;0.93;0.82;;;12.80;90.60;;;;;;5048944;28;20025;-56
2021/05/04 00:39:41;;;;;;;1.13;0.90;;;12.80;90.80;;;;;;5048920;28;20044;-56
2021/05/04 00:42:06;;;;;;;1.40;1.00;;;12.70;90.80;;;;;;5049093;28;20078;-56
2021/05/04 00:44:33;;;;;;;1.20;1.10;;;12.70;90.80;;;;;;5048691;28;20036;-56
2021/05/04 00:46:58;;;;;;;0.90;0.90;;;12.70;91.00;;;;;;5048847;28;20029;-57
2021/05/04 00:49:24;;;;;;;3.78;1.95;;;12.70;91.00;;;;;;5063940;28;20029;-56
2021/05/04 00:51:52;;;;;;;2.28;1.40;;;12.60;91.10;;;;;;5048823;28;20384;-56
2021/05/04 00:54:18;;;;;;;1.30;1.17;;;12.60;91.30;;;;;;5048992;28;20025;-56
2021/05/04 00:56:45;;;;;;;1.10;1.00;;;12.50;91.50;;;;;;5048530;28;20059;-56
2021/05/04 00:59:11;;;;;;;0.90;0.90;;;12.60;91.60;;;;;;5056111;28;20024;-56
2021/05/04 01:01:37;;;;;;;1.73;1.15;;;12.70;91.50;;;;;;5068750;28;20379;-56
2021/05/04 01:04:05;;;;;;;1.02;0.88;;;12.70;91.50;;;;;;5068744;28;20033;-56
2021/05/04 01:06:31;;;;;;;0.68;0.68;;;12.80;91.20;;;;;;5068055;28;20475;-56
2021/05/04 01:08:56;;;;;;;1.08;0.82;;;12.80;91.30;;;;;;5068451;28;20056;-56
2021/05/04 01:11:22;;;;;;;0.80;0.80;;;12.80;91.50;;;;;;5068284;28;20119;-56
2021/05/04 01:13:57;;;;;;;1.42;0.90;;;12.80;91.50;;;;;;5068179;28;20395;-56
2021/05/04 01:16:23;;;;;;;0.80;0.80;;;12.80;91.60;;;;;;5068306;28;20077;-56
2021/05/04 01:18:49;;;;;;;1.02;0.90;;;12.80;91.50;;;;;;5068572;28;20417;-56
2021/05/04 01:21:15;;;;;;;1.13;1.02;;;12.80;91.50;;;;;;5068428;28;20047;-56
2021/05/04 01:23:41;;;;;;;0.70;0.70;;;12.80;91.40;;;;;;5067944;28;20021;-56
2021/05/04 01:26:06;;;;;;;0.60;0.60;;;12.80;91.40;;;;;;5068039;28;20039;-56
2021/05/04 01:28:33;;;;;;;0.73;0.70;;;12.80;91.60;;;;;;5068103;28;20046;-56
2021/05/04 01:30:59;;;;;;;1.05;1.00;;;12.90;91.50;;;;;;5068895;28;20025;-56
2021/05/04 01:33:25;;;;;;;2.45;0.90;;;12.80;91.60;;;;;;5068133;28;20024;-56
2021/05/04 01:35:50;;;;;;;1.50;1.00;;;12.80;91.70;;;;;;5068007;28;20074;-56
2021/05/04 01:38:16;;;;;;;0.85;0.75;;;12.80;91.60;;;;;;5068213;28;20051;-56
2021/05/04 01:40:42;;;;;;;0.80;0.80;;;12.70;91.80;;;;;;5067801;28;20028;-56
2021/05/04 01:43:08;;;;;;;0.93;0.80;;;12.70;91.80;;;;;;5067989;28;20071;-56
2021/05/04 01:45:34;;;;;;;0.93;0.75;;;12.70;91.80;;;;;;5067535;28;20060;-56
2021/05/04 01:48:00;;;;;;;0.90;0.88;;;12.60;91.90;;;;;;5067786;28;20107;-56
2021/05/04 01:50:26;;;;;;;1.13;0.77;;;12.60;91.90;;;;;;5067510;28;20031;-56
2021/05/04 01:52:51;;;;;;;2.03;1.33;;;12.50;92.00;;;;;;5068002;28;20028;-56
2021/05/04 01:55:17;;;;;;;0.80;0.73;;;12.60;92.10;;;;;;5067812;28;20024;-56
2021/05/04 01:57:43;;;;;;;1.20;0.93;;;12.60;92.10;;;;;;5067275;28;20501;-56
2021/05/04 02:00:09;;;;;;;0.73;0.73;;;12.50;92.20;;;;;;5067533;28;20067;-56
2021/05/04 02:02:36;;;;;;;1.10;1.00;;;12.50;92.30;;;;;;5067104;28;20724;-56
2021/05/04 02:05:03;;;;;;;1.08;0.88;;;12.50;92.30;;;;;;5067384;28;20074;-56
2021/05/04 02:07:29;;;;;;;0.85;0.77;;;12.40;92.40;;;;;;5067806;28;20037;-56
2021/05/04 02:09:55;;;;;;;1.00;0.60;;;12.40;92.50;;;;;;5066973;28;20036;-56
2021/05/04 02:12:21;;;;;;;0.70;0.70;;;12.40;92.50;;;;;;5066967;28;20449;-56
2021/05/04 02:14:47;;;;;;;1.13;0.90;;;12.30;92.60;;;;;;5067113;28;20028;-56
2021/05/04 02:17:12;;;;;;;0.63;0.60;;;12.30;92.80;;;;;;5067389;28;20028;-56
2021/05/04 02:19:38;;;;;;;2.28;0.90;;;12.30;92.90;;;;;;5067114;28;20099;-56
2021/05/04 02:22:05;;;;;;;1.50;0.98;;;12.30;93.00;;;;;;5067217;28;20036;-56
2021/05/04 02:24:31;;;;;;;2.20;0.80;;;12.20;93.00;;;;;;5067237;28;20028;-56
2021/05/04 02:26:56;;;;;;;0.88;0.75;;;12.20;93.30;;;;;;5066712;28;20031;-56
2021/05/04 02:29:22;;;;;;;1.75;1.13;;;12.10;93.40;;;;;;5052095;28;20368;-56
2021/05/04 02:31:48;;;;;;;1.15;0.98;;;12.00;93.60;;;;;;5047341;28;20017;-56
2021/05/04 02:34:13;;;;;;;1.13;1.02;;;12.10;93.60;;;;;;5047195;28;20174;-56
2021/05/04 02:36:39;;;;;;;1.10;1.00;;;12.00;93.80;;;;;;5047177;28;20620;-56
2021/05/04 02:39:07;;;;;;;3.45;1.27;;;12.00;93.90;;;;;;5046994;28;20025;-56
2021/05/04 02:41:34;;;;;;;1.20;1.00;;;12.00;94.10;;;;;;5046773;28;20072;-56
2021/05/04 02:44:04;;;;;;;0.88;0.88;;;11.90;94.20;;;;;;5046592;28;20029;-56
2021/05/04 02:46:30;;;;;;;2.33;1.15;;;12.00;94.20;;;;;;5046312;28;20029;-56
2021/05/04 02:48:56;;;;;;;2.80;1.00;;;11.90;94.40;;;;;;5047088;28;20029;-55
2021/05/04 02:51:22;;;;;;;1.58;1.13;;;11.90;94.60;;;;;;5046391;28;20024;-56
2021/05/04 02:53:48;;;;;;;0.90;0.90;;;11.90;94.70;;;;;;5046905;28;20017;-55
2021/05/04 02:56:14;;;;;;;1.83;1.33;;;11.90;94.80;;;;;;5046508;28;20040;-56
2021/05/04 02:58:40;;;;;;;1.60;1.00;;;11.80;94.90;;;;;;5049843;28;20036;-55
2021/05/04 03:01:06;;;;;;;0.82;0.80;;;11.80;95.10;;;;;;5066980;28;20453;-55
2021/05/04 03:03:35;;;;;;;1.20;1.10;;;11.80;95.30;;;;;;5066196;28;20040;-56
2021/05/04 03:06:02;;;;;;;1.20;1.02;;;11.80;95.30;;;;;;5065734;28;20028;-56
2021/05/04 03:08:28;;;;;;;1.27;1.08;;;11.70;95.60;;;;;;5065967;28;20031;-56
2021/05/04 03:10:54;;;;;;;0.80;0.80;;;11.70;95.70;;;;;;5066509;28;20115;-56
2021/05/04 03:13:28;;;;;;;1.60;1.35;;;11.60;95.90;;;;;;5066392;28;20116;-56
2021/05/04 03:15:54;;;;;;;1.65;1.20;;;11.60;96.00;;;;;;5063125;28;20028;-56
2021/05/04 03:18:20;;;;;;;2.05;1.20;;;11.60;96.20;;;;;;5064883;28;20129;-55
2021/05/04 03:20:46;;;;;;;2.25;1.27;;;11.60;96.30;;;;;;5064604;28;20029;-56
2021/05/04 03:23:12;;;;;;;3.83;1.45;;;11.50;96.50;;;;;;5065938;28;20086;-55
2021/05/04 03:25:40;;;;;;;1.60;1.50;;;11.50;96.70;;;;;;5064487;28;20029;-56
2021/05/04 03:28:06;;;;;;;1.83;1.50;;;11.50;96.90;;;;;;5064845;28;20430;-56
2021/05/04 03:30:33;;;;;;;1.10;1.00;;;11.50;96.90;;;;;;5064702;28;20032;-55
2021/05/04 03:32:59;;;;;;;6.05;1.70;;;11.50;97.00;;;;;;5064916;28;20028;-54
2021/05/04 03:35:24;;;;;;;1.30;1.15;;;11.50;97.10;;;;;;5063812;28;20524;-54
2021/05/04 03:37:50;;;;;;;2.25;1.55;;;11.50;97.10;;;;;;5068665;28;20093;-55
2021/05/04 03:40:16;;;;;;;1.63;1.30;;;11.40;97.20;;;;;;5070329;28;20471;-55
2021/05/04 03:42:43;;;;;;;2.08;1.38;;;11.40;97.10;;;;;;5070223;28;20032;-55
2021/05/04 03:45:11;;;;;;;2.08;1.60;;;11.40;97.10;;;;;;5069737;28;20032;-55
2021/05/04 03:47:39;;;;;;;4.03;1.67;;;11.40;97.00;;;;;;5069697;28;20029;-55
2021/05/04 03:50:07;;;;;;;1.60;1.10;;;11.40;97.10;;;;;;5070317;28;20406;-55
2021/05/04 03:52:34;;;;;;;1.20;1.10;;;11.40;97.10;;;;;;5069632;28;20028;-55
2021/05/04 03:54:59;;;;;;;3.78;2.00;;;11.40;97.10;;;;;;5068644;28;20107;-54
2021/05/04 03:57:25;;;;;;;2.47;1.48;;;11.30;97.20;;;;;;5068133;28;20108;-54
2021/05/04 03:59:51;;;;;;;2.60;1.70;;;11.40;97.10;;;;;;5068031;28;20517;-55
2021/05/04 04:02:17;;;;;;;1.88;1.58;;;11.40;97.20;;;;;;5068682;28;20429;-54
2021/05/04 04:04:43;;;;;;;6.43;2.10;;;11.40;97.10;;;;;;5068365;28;20038;-54
2021/05/04 04:07:09;;;;;;;2.72;1.52;;;11.30;97.30;;;;;;5069057;28;20036;-54
2021/05/04 04:09:35;;;;;;;3.60;1.75;;;11.30;97.10;;;;;;5066849;28;20028;-54
2021/05/04 04:12:01;;;;;;;3.40;1.67;;;11.30;97.20;;;;;;5068262;28;20089;-54
2021/05/04 04:14:28;;;;;;;2.92;1.70;;;11.30;97.30;;;;;;5067858;28;20027;-55
2021/05/04 04:16:55;;;;;;;2.05;1.48;;;11.30;97.20;;;;;;5067957;28;20025;-55
2021/05/04 04:19:20;;;;;;;2.10;1.67;;;11.40;97.20;;;;;;5067635;28;20024;-54
2021/05/04 04:21:48;;;;;;;2.38;1.58;;;11.20;97.30;;;;;;5068430;28;20040;-54
2021/05/04 04:24:14;;;;;;;3.25;1.65;;;11.20;97.50;;;;;;5069142;28;20487;-54
2021/05/04 04:26:41;;;;;;;1.83;1.50;;;11.10;97.60;;;;;;5062916;28;20036;-55
2021/05/04 04:29:07;;;;;;;3.85;1.80;;;11.30;97.60;;;;;;5068249;28;20069;-54
2021/05/04 04:31:34;;;;;;;2.42;1.55;;;11.20;97.60;;;;;;5059001;28;20028;-54
2021/05/04 04:33:59;;;;;;;2.20;1.50;;;11.30;97.60;;;;;;5067515;28;20025;-55
2021/05/04 04:36:25;;;;;;;2.25;1.40;;;11.30;97.50;;;;;;5067975;28;20384;-55
2021/05/04 04:38:51;;;;;;;2.17;1.60;;;11.30;97.50;;;;;;5067855;28;20096;-55
2021/05/04 04:41:17;;;;;;;1.52;1.40;;;11.30;97.50;;;;;;5067039;28;20162;-55
2021/05/04 04:43:42;;;;;;;2.10;1.70;;;11.30;97.40;;;;;;5066370;28;20036;-54
2021/05/04 04:46:08;;;;;;;1.63;1.40;;;11.30;97.70;;;;;;5067462;28;20024;-55
2021/05/04 04:48:34;;;;;;;3.15;1.55;;;11.40;97.70;;;;;;5064648;28;20021;-55
2021/05/04 04:51:01;;;;;;;2.55;1.90;;;11.30;97.90;;;;;;5067537;28;20241;-55
2021/05/04 04:53:27;;;;;;;3.05;1.90;;;11.30;97.90;;;;;;5068097;28;20031;-56
2021/05/04 04:55:53;;;;;;;3.03;1.58;;;11.40;98.00;;;;;;5067812;28;20024;-55
2021/05/04 04:58:18;;;;;;;3.05;1.55;;;11.40;98.00;;;;;;5067394;28;20800;-54
2021/05/04 05:00:44;;;;;;;4.50;1.70;;;11.40;97.80;;;;;;5067162;28;20505;-55
2021/05/04 05:03:10;;;;;;;3.38;1.63;;;11.40;97.80;;;;;;5065813;28;20039;-55
2021/05/04 05:05:35;;;;;;;1.63;1.15;;;11.40;98.10;;;;;;5066767;28;20031;-55
2021/05/04 05:08:02;;;;;;;2.58;1.80;;;11.50;98.00;;;;;;5066639;28;20029;-55
2021/05/04 05:10:28;;;;;;;2.88;1.40;;;11.40;98.20;;;;;;5066927;28;20028;-55
2021/05/04 05:12:53;;;;;;;1.80;1.42;;;11.50;98.10;;;;;;5067665;28;20016;-55
2021/05/04 05:15:19;;;;;;;1.90;1.60;;;11.40;98.40;;;;;;5066973;28;20453;-55
2021/05/04 05:17:46;;;;;;;1.67;1.35;;;11.40;98.40;;;;;;5066800;28;20025;-56
2021/05/04 05:20:13;;;;;;;3.05;1.73;;;11.50;98.40;;;;;;5067412;28;20033;-56
2021/05/04 05:22:39;;;;;;;2.03;1.80;;;11.50;98.60;;;;;;5066547;28;20108;-55
2021/05/04 05:25:05;;;;;;;1.58;1.30;;;11.50;98.60;;;;;;5065335;28;20554;-55
2021/05/04 05:27:33;;;;;;;1.05;1.00;;;11.60;98.60;;;;;;5066624;28;20031;-55
2021/05/04 05:29:59;;;;;;;2.15;1.60;;;11.60;98.40;;;;;;5066867;28;20052;-55
2021/05/04 05:32:26;;;;;;;3.45;1.67;;;11.70;98.60;;;;;;5066951;28;20025;-55
2021/05/04 05:34:52;;;;;;;4.43;1.55;;;11.70;98.80;;;;;;5066590;28;20444;-55
2021/05/04 05:37:17;;;;;;;2.13;1.40;;;11.70;98.50;;;;;;5066744;28;20032;-55
2021/05/04 05:39:44;;;;;;;2.60;1.30;;;11.70;98.60;;;;;;5066237;28;20032;-55
2021/05/04 05:42:13;;;;;;;2.92;1.30;;;11.80;98.60;;;;;;5065804;28;20089;-56
2021/05/04 05:44:40;;;;;;;2.50;1.50;;;11.80;98.60;;;;;;5065567;28;20021;-55
2021/05/04 05:47:06;;;;;;;2.70;1.52;;;11.80;98.70;;;;;;5066674;28;20431;-55
2021/05/04 05:49:32;;;;;;;1.98;1.30;;;11.80;98.20;;;;;;5066202;28;20021;-55
2021/05/04 05:51:58;;;;;;;1.58;1.40;;;11.90;98.30;;;;;;5066008;28;20024;-56
2021/05/04 05:54:26;;;;;;;1.67;1.33;;;11.90;98.20;;;;;;5066733;28;20040;-55
2021/05/04 05:56:51;;;;;;;1.23;1.13;;;12.00;97.90;;;;;;5066095;28;20036;-56
2021/05/04 05:59:17;;;;;;;3.08;1.27;;;12.00;98.30;;;;;;5066402;28;20028;-55
2021/05/04 06:01:42;;;;;;;2.90;1.80;;;12.10;98.20;;;;;;5065500;28;20024;-55
2021/05/04 06:04:08;;;;;;;2.17;1.33;;;12.10;98.40;;;;;;5065702;28;20107;-55
2021/05/04 06:06:34;;;;;;;2.08;1.10;;;12.10;98.40;;;;;;5065667;28;20040;-55
2021/05/04 06:09:00;;;;;;;3.20;1.45;;;12.20;98.10;;;;;;5065373;28;20021;-56
2021/05/04 06:11:25;;;;;;;1.88;1.33;;;12.20;98.10;;;;;;5066098;28;20503;-56
2021/05/04 06:13:52;;;;;;;2.92;1.80;;;12.20;98.00;;;;;;5065816;28;20013;-56
2021/05/04 06:16:18;;;;;;;2.55;1.60;;;12.20;98.00;;;;;;5064762;28;20089;-55
2021/05/04 06:18:43;;;;;;;1.90;1.15;;;12.20;97.90;;;;;;5066745;28;20028;-55
2021/05/04 06:21:09;;;;;;;1.92;1.60;;;12.30;97.90;;;;;;5067440;28;20119;-55
2021/05/04 06:23:35;;;;;;;1.90;1.20;;;12.40;98.00;;;;;;5067091;28;20430;-55
2021/05/04 06:26:01;;;;;;;1.85;1.52;;;12.40;97.70;;;;;;5067160;28;20099;-55
2021/05/04 06:28:27;;;;;;;2.45;1.70;;;12.40;97.30;;;;;;5067334;28;20029;-55
2021/05/04 06:30:53;;;;;;;4.07;1.63;;;12.50;97.30;;;;;;5067013;28;20035;-55
2021/05/04 06:33:19;;;;;;;2.67;2.00;;;12.60;97.20;;;;;;5064749;28;20064;-55
2021/05/04 06:35:48;;;;;;;1.23;1.13;;;12.50;97.20;;;;;;5064873;28;20036;-55
2021/05/04 06:38:16;;;;;;;2.42;1.27;;;12.60;97.40;;;;;;5065448;28;20020;-54
2021/05/04 06:40:43;;;;;;;2.47;1.58;;;12.70;97.30;;;;;;5064980;28;20032;-55
2021/05/04 06:43:09;;;;;;;2.70;1.52;;;12.70;97.20;;;;;;5065624;28;20437;-55
2021/05/04 06:45:36;;;;;;;1.42;1.33;;;12.80;97.10;;;;;;5064956;28;20402;-56
2021/05/04 06:48:01;;;;;;;5.30;1.52;;;12.70;97.10;;;;;;5064844;28;20600;-55
2021/05/04 06:50:27;;;;;;;1.90;1.40;;;12.70;97.10;;;;;;5065704;28;20032;-56
2021/05/04 06:52:53;;;;;;;2.72;1.65;;;12.70;96.90;;;;;;5064247;28;20394;-56
2021/05/04 06:55:19;;;;;;;2.08;1.67;;;12.80;97.00;;;;;;5066719;28;20032;-55
2021/05/04 06:57:45;;;;;;;1.90;1.20;;;12.70;97.10;;;;;;5066863;28;20039;-55
2021/05/04 07:00:11;;;;;;;2.28;1.13;;;12.80;97.30;;;;;;5066678;28;20150;-55
2021/05/04 07:02:37;;;;;;;2.10;1.17;;;12.80;97.20;;;;;;5066104;28;20066;-54
2021/05/04 07:05:08;;;;;;;1.65;1.23;;;12.80;97.10;;;;;;5066699;28;20055;-55
2021/05/04 07:07:33;;;;;;;2.10;1.30;;;12.90;97.30;;;;;;5066339;28;20059;-55
2021/05/04 07:10:00;;;;;;;1.38;1.05;;;13.00;96.90;;;;;;5066186;28;20502;-55
2021/05/04 07:12:26;;;;;;;3.33;1.40;;;12.90;97.20;;;;;;5066469;28;20662;-55
2021/05/04 07:14:52;;;;;;;2.88;1.48;;;13.00;97.20;;;;;;5064124;28;20028;-55
2021/05/04 07:17:17;;;;;;;2.70;1.10;;;13.00;97.60;;;;;;5064735;28;20046;-55
2021/05/04 07:19:43;;;;;;;1.45;1.17;;;13.10;97.60;;;;;;5064675;28;20537;-55
2021/05/04 07:22:10;;;;;;;1.08;1.00;;;13.10;97.50;;;;;;5064911;28;20458;-56
2021/05/04 07:24:38;;;;;;;1.02;0.93;;;13.20;97.40;;;;;;5063675;28;20540;-55
2021/05/04 07:27:08;;;;;;;1.20;1.10;;;13.20;97.30;;;;;;5064769;28;20157;-55
2021/05/04 07:29:37;;;;;;;1.98;1.27;;;13.20;97.00;;;;;;5064419;28;20483;-54
2021/05/04 07:32:03;;;;;;;1.85;1.50;;;13.20;96.50;;;;;;5064528;28;20105;-55
2021/05/04 07:34:30;;;;;;;2.28;1.17;;;13.30;97.20;;;;;;5064597;28;20028;-55
2021/05/04 07:36:56;;;;;;;1.20;1.10;;;13.40;97.50;;;;;;5065176;28;20033;-55
2021/05/04 07:39:22;;;;;;;3.97;1.45;;;13.40;97.40;;;;;;5064579;28;20040;-56
2021/05/04 07:41:48;;;;;;;1.60;1.20;;;13.40;97.40;;;;;;5064845;28;20035;-55
2021/05/04 07:44:14;;;;;;;1.85;1.10;;;13.40;97.40;;;;;;5064759;28;20527;-56
2021/05/04 07:46:41;;;;;;;1.45;1.10;;;13.50;97.20;;;;;;5064144;28;20111;-55
2021/05/04 07:49:11;;;;;;;1.67;1.10;;;13.50;97.20;;;;;;5065019;28;20422;-56
2021/05/04 07:51:37;;;;;;;1.20;0.80;;;13.50;97.10;;;;;;5064416;28;20074;-56
2021/05/04 07:54:03;;;;;;;1.25;0.98;;;13.60;97.30;;;;;;5064633;28;20021;-56
2021/05/04 07:56:28;;;;;;;1.63;1.10;;;13.60;97.10;;;;;;5064596;28;20036;-56
2021/05/04 07:58:55;;;;;;;4.82;1.25;;;13.60;96.90;;;;;;5064972;28;20036;-56
2021/05/04 08:01:20;;;;;;;2.75;1.00;;;13.60;97.00;;;;;;5063186;28;20029;-56
2021/05/04 08:03:47;;;;;;;0.93;0.90;;;13.70;96.80;;;;;;5064496;28;20025;-56
2021/05/04 08:06:13;;;;;;;1.20;1.00;;;13.70;97.00;;;;;;5064180;28;20033;-56
2021/05/04 08:08:39;;;;;;;1.38;1.10;;;13.80;96.80;;;;;;5063995;28;20317;-56
2021/05/04 08:11:05;;;;;;;2.55;1.17;;;13.90;96.70;;;;;;5064431;28;20040;-56
2021/05/04 08:13:31;;;;;;;1.90;1.60;;;13.90;96.90;;;;;;5064322;28;20025;-56
2021/05/04 08:15:56;;;;;;;2.00;1.30;;;13.90;97.00;;;;;;5064698;28;20479;-56
2021/05/04 08:18:22;;;;;;;3.25;1.20;;;13.90;96.70;;;;;;5064310;28;20036;-56
2021/05/04 08:20:53;;;;;;;4.65;1.25;;;14.00;96.80;;;;;;5064287;28;20036;-56
2021/05/04 08:23:23;;;;;;;3.33;1.30;;;14.10;96.70;;;;;;5064399;28;20060;-56
2021/05/04 08:25:49;;;;;;;2.10;1.40;;;14.20;96.80;;;;;;5067861;28;20025;-55
2021/05/04 08:28:14;;;;;;;1.63;1.25;;;14.20;96.70;;;;;;5067846;28;20112;-55
2021/05/04 08:30:41;;;;;;;1.38;0.90;;;14.20;96.60;;;;;;5067432;28;20029;-56
2021/05/04 08:33:07;;;;;;;2.05;1.60;;;14.30;96.70;;;;;;5067808;28;20025;-56
2021/05/04 08:35:33;;;;;;;1.50;1.20;;;14.40;96.30;;;;;;5067789;28;20031;-56
2021/05/04 08:38:00;;;;;;;2.40;1.23;;;14.50;96.90;;;;;;5067949;28;20029;-56
2021/05/04 08:40:26;;;;;;;3.30;1.25;;;14.50;96.30;;;;;;5068226;28;20025;-56
2021/05/04 08:42:53;;;;;;;4.30;1.10;;;14.60;96.20;;;;;;5067828;28;20568;-56
2021/05/04 08:45:19;;;;;;;1.67;1.50;;;14.60;95.80;;;;;;5067918;28;20434;-57
2021/05/04 08:47:48;;;;;;;2.35;1.20;;;14.60;95.20;;;;;;5067372;28;20107;-56
2021/05/04 08:50:16;;;;;;;2.63;1.40;;;14.70;95.80;;;;;;5067539;28;20023;-56
2021/05/04 08:52:43;;;;;;;2.42;1.40;;;14.80;95.80;;;;;;5067355;28;20028;-57
2021/05/04 08:55:10;;;;;;;2.03;1.20;;;14.90;95.60;;;;;;5067449;28;20035;-57
2021/05/04 08:57:37;;;;;;;4.53;1.48;;;14.90;95.30;;;;;;5067226;28;20122;-57
2021/05/04 09:00:08;;;;;;;1.52;1.20;;;14.90;94.90;;;;;;5067626;28;20353;-57
2021/05/04 09:02:56;;;;;;;1.27;1.17;;;15.00;95.30;;;;;;5066719;28;20115;-56
2021/05/04 09:05:22;;;;;;;1.83;1.20;;;15.00;94.80;;;;;;5067035;28;20032;-57
2021/05/04 09:07:48;;;;;;;2.92;1.08;;;15.00;95.20;;;;;;5067118;28;20504;-56
2021/05/04 09:12:54;;;;;;;1.33;0.93;;;15.30;95.30;;;;;;5067236;28;20067;-57
2021/05/04 09:21:36;;;;;;;2.30;1.13;;;15.40;94.50;;;;;;5046772;28;20032;-56
2021/05/04 09:24:17;;;;;;;2.83;1.55;;;15.40;93.60;;;;;;5066969;28;20104;-56
2021/05/04 09:26:43;;;;;;;2.95;1.40;;;15.40;93.50;;;;;;5066278;28;20068;-56
2021/05/04 09:29:10;;;;;;;2.65;1.40;;;15.50;93.10;;;;;;5066812;28;20093;-56
2021/05/04 09:31:40;;;;;;;1.83;0.93;;;15.40;93.50;;;;;;5066476;28;20047;-56
2021/05/04 09:34:11;;;;;;;1.75;1.20;;;15.50;94.00;;;;;;5066674;28;20099;-57
2021/05/04 09:36:50;;;;;;;1.00;0.90;;;15.60;93.50;;;;;;5066063;28;20028;-56
2021/05/04 09:39:26;;;;;;;1.67;0.90;;;15.70;93.70;;;;;;5066729;28;20028;-57
2021/05/04 09:41:57;;;;;;;2.55;0.90;;;15.70;93.10;;;;;;5066627;28;20110;-57
2021/05/04 09:44:40;;;;;;;1.83;0.70;;;15.80;93.40;;;;;;5066518;28;20029;-57
2021/05/04 09:47:07;;;;;;;2.78;0.90;;;15.90;93.90;;;;;;5066087;28;20029;-57
2021/05/04 09:49:34;;;;;;;1.20;1.10;;;15.90;93.40;;;;;;5065954;28;20529;-56
2021/05/04 09:53:03;;;;;;;3.92;1.40;;;15.80;92.90;;;;;;5066303;28;20036;-57
2021/05/04 09:55:16;;;;;;;1.93;1.30;;;15.80;93.20;;;;;;5058469;28;20029;-57
2021/05/04 09:57:49;;;;;;;3.13;1.27;;;15.90;93.10;;;;;;5065665;28;20029;-56
2021/05/04 10:00:17;;;;;;;1.23;1.10;;;16.00;93.20;;;;;;5065996;28;20040;-57
2021/05/04 10:02:50;;;;;;;2.58;1.40;;;16.00;93.20;;;;;;5065620;28;20020;-57
2021/05/04 10:05:18;;;;;;;2.35;1.30;;;16.20;93.80;;;;;;5065967;28;20490;-57
2021/05/04 10:07:46;;;;;;;2.10;1.15;;;16.30;93.30;;;;;;5065702;28;20033;-57
2021/05/04 10:10:14;;;;;;;2.15;1.00;;;16.30;93.20;;;;;;5065610;28;20466;-57
2021/05/04 10:12:42;;;;;;;1.75;1.20;;;16.40;93.50;;;;;;5065613;28;20356;-57
2021/05/04 10:15:13;;;;;;;1.83;1.42;;;16.40;92.60;;;;;;5065827;28;20055;-57
2021/05/04 10:17:41;;;;;;;1.13;1.00;;;16.30;93.40;;;;;;5065566;28;20025;-57
2021/05/04 10:20:14;;;;;;;4.88;1.40;;;16.40;93.00;;;;;;5065464;28;20025;-57
2021/05/04 10:22:40;;;;;;;1.80;1.13;;;16.40;93.50;;;;;;5065239;28;20546;-57
2021/05/04 10:25:10;;;;;;;2.03;1.33;;;16.60;92.30;;;;;;5065791;28;20097;-57
2021/05/04 10:27:38;;;;;;;2.28;1.33;;;16.60;93.10;;;;;;5065171;28;20086;-57
2021/05/04 10:30:05;;;;;;;1.55;0.80;;;16.70;92.80;;;;;;5065475;28;20020;-57
2021/05/04 10:32:54;;;;;;;1.40;1.00;;;16.80;92.60;;;;;;5065220;28;20024;-57
2021/05/04 10:35:29;;;;;;;0.85;0.82;;;17.00;92.80;;;;;;5065147;28;20029;-57
2021/05/04 10:38:06;;;;;;;2.67;1.00;;;17.10;92.40;;;;;;5065926;28;20040;-57
2021/05/04 10:40:35;;;;;;;1.33;0.80;;;17.10;91.80;;;;;;5064880;28;20119;-57
2021/05/04 10:43:23;;;;;;;1.55;1.20;;;17.00;92.10;;;;;;5065292;28;20032;-59
2021/05/04 10:45:53;;;;;;;4.07;1.10;;;17.10;92.30;;;;;;5053017;28;20533;-56
2021/05/04 10:48:42;;;;;;;1.88;1.13;;;17.20;92.50;;;;;;5064636;28;20024;-56
2021/05/04 10:51:13;;;;;;;1.33;1.15;;;17.10;92.20;;;;;;5065127;28;20028;-56
2021/05/04 10:53:56;;;;;;;1.17;0.90;;;17.10;92.10;;;;;;5064813;28;20563;-56
2021/05/04 10:56:43;;;;;;;2.05;1.10;;;17.20;91.30;;;;;;5064593;28;20025;-56
2021/05/04 10:59:33;;;;;;;1.23;1.00;;;17.10;91.10;;;;;;5065081;28;20020;-56
2021/05/04 11:02:17;;;;;;;1.25;0.90;;;17.10;91.40;;;;;;5064911;28;20146;-56
2021/05/04 11:04:44;;;;;;;1.00;0.90;;;17.20;91.90;;;;;;5063654;28;20044;-57
2021/05/04 11:07:10;;;;;;;1.75;1.10;;;17.40;91.60;;;;;;5064660;28;20075;-57
2021/05/04 11:09:39;;;;;;;1.67;1.00;;;17.30;91.70;;;;;;5063885;28;20157;-57
2021/05/04 11:12:09;;;;;;;3.33;1.58;;;17.40;91.30;;;;;;5063675;28;20107;-56
2021/05/04 11:14:37;;;;;;;1.55;1.10;;;17.40;91.40;;;;;;5065072;28;20028;-56
2021/05/04 11:17:07;;;;;;;1.08;0.90;;;17.50;90.70;;;;;;5063878;28;20158;-57
2021/05/04 11:19:36;;;;;;;1.08;0.70;;;17.60;90.70;;;;;;5064381;28;20125;-57
2021/05/04 11:22:09;;;;;;;1.08;0.80;;;17.60;90.60;;;;;;5064918;28;20190;-57
2021/05/04 11:24:36;;;;;;;1.55;1.10;;;17.70;90.90;;;;;;5064469;28;20032;-57
2021/05/04 11:27:05;;;;;;;4.00;1.17;;;17.70;91.20;;;;;;5063020;28;20162;-56
2021/05/04 11:29:31;;;;;;;1.67;1.20;;;17.70;90.80;;;;;;5054584;28;20476;-56
2021/05/04 11:32:19;;;;;;;1.30;0.80;;;17.80;90.60;;;;;;5063937;28;20112;-57
2021/05/04 11:34:51;;;;;;;2.35;0.95;;;17.80;90.40;;;;;;5044515;28;20531;-56
2021/05/04 11:37:20;;;;;;;1.92;1.02;;;17.80;91.20;;;;;;5053561;28;20029;-57
2021/05/04 11:39:58;;;;;;;1.83;1.33;;;18.10;91.40;;;;;;5064771;28;20082;-57
2021/05/04 11:42:42;;;;;;;1.73;1.05;;;18.10;90.90;;;;;;5084988;28;20108;-56
2021/05/04 11:45:11;;;;;;;1.08;0.98;;;18.40;90.40;;;;;;5072556;28;20035;-57
2021/05/04 11:47:54;;;;;;;0.95;0.85;;;18.60;90.60;;;;;;5064147;28;20477;-57
2021/05/04 11:50:28;;;;;;;0.95;0.80;;;18.70;89.30;;;;;;5061885;28;20029;-57
2021/05/04 11:53:03;;;;;;;1.02;0.93;;;18.70;90.00;;;;;;5063966;28;20025;-56
2021/05/04 11:55:33;;;;;;;0.80;0.80;;;18.90;90.40;;;;;;5075175;28;20024;-59
2021/05/04 11:58:07;;;;;;;1.02;0.93;;;19.00;89.10;;;;;;5067256;28;20055;-57
2021/05/04 12:00:37;;;;;;;1.27;0.77;;;19.10;88.50;;;;;;5072474;28;20517;-57
2021/05/04 12:03:16;;;;;;;4.10;1.35;;;19.40;89.70;;;;;;5068418;28;20517;-57
2021/05/04 12:05:44;;;;;;;0.77;0.77;;;19.70;89.90;;;;;;5067894;28;20749;-57
2021/05/04 12:08:13;;;;;;;0.77;0.70;;;20.00;89.10;;;;;;5067463;28;20037;-57
2021/05/04 12:10:51;;;;;;;0.63;0.63;;;20.00;88.00;;;;;;5047799;28;20112;-57
2021/05/04 12:13:22;;;;;;;1.30;0.90;;;20.20;87.90;;;;;;5059517;28;20027;-57
2021/05/04 12:15:51;;;;;;;1.17;1.00;;;20.20;88.30;;;;;;5065461;28;20519;-57
2021/05/04 12:18:24;;;;;;;3.97;1.10;;;20.40;86.50;;;;;;5067962;28;20505;-57
2021/05/04 12:20:50;;;;;;;1.00;1.00;;;20.40;85.50;;;;;;5067925;28;20043;-57
2021/05/04 12:23:29;;;;;;;0.80;0.80;;;20.50;85.90;;;;;;5067825;28;20032;-57
2021/05/04 12:26:05;;;;;;;0.70;0.70;;;20.60;86.20;;;;;;5068518;28;20032;-57
2021/05/04 12:28:32;;;;;;;1.40;0.50;;;20.70;85.40;;;;;;5065673;28;20032;-56
2021/05/04 12:31:23;;;;;;;0.70;0.70;;;20.90;84.90;;;;;;5066632;28;20029;-57
2021/05/04 12:33:52;;;;;;;0.98;0.70;;;21.00;84.00;;;;;;5066270;28;20031;-57
2021/05/04 12:36:37;;;;;;;2.60;0.90;;;21.10;83.50;;;;;;5068678;28;20457;-57
2021/05/04 12:39:11;;;;;;;1.58;0.80;;;21.20;83.90;;;;;;5064629;28;20565;-57
2021/05/04 12:41:46;;;;;;;2.65;0.77;;;21.40;84.20;;;;;;5068391;28;20103;-56
2021/05/04 12:44:20;;;;;;;1.63;0.70;;;21.60;83.10;;;;;;5067278;28;20543;-58
2021/05/04 12:46:55;;;;;;;2.17;1.38;;;21.70;83.90;;;;;;5067998;28;20467;-56
2021/05/04 12:49:33;;;;;;;0.82;0.82;;;21.70;81.90;;;;;;5068400;28;20028;-57
2021/05/04 12:52:06;;;;;;;1.33;0.82;;;21.50;81.90;;;;;;5068393;28;20029;-56
2021/05/04 12:54:35;;;;;;;0.68;0.68;;;21.30;80.90;;;;;;5068202;28;20027;-56
2021/05/04 12:57:19;;;;;;;1.00;0.90;;;21.30;82.50;;;;;;5068082;28;20020;-56
2021/05/04 12:59:45;;;;;;;1.80;1.00;;;21.30;81.50;;;;;;5048081;28;20040;-56
2021/05/04 13:02:20;;;;;;;1.05;0.88;;;20.80;81.80;;;;;;5047349;28;20032;-56